createdAt,value
2019-03-30T00:00:29.775Z,100.00
2019-03-30T00:02:59.327Z,100.00
2019-03-30T00:05:28.932Z,100.00
2019-03-30T00:07:58.797Z,100.00
2019-03-30T00:10:28.658Z,100.00
2019-03-30T00:12:58.347Z,100.00
2019-03-30T00:15:27.891Z,100.00
2019-03-30T00:17:57.478Z,100.00
2019-03-30T00:20:27.126Z,100.00
2019-03-30T00:22:56.715Z,100.00
2019-03-30T00:25:26.264Z,100.00
2019-03-30T00:27:55.942Z,100.00
2019-03-30T00:30:25.596Z,100.00
2019-03-30T00:32:55.136Z,100.00
2019-03-30T00:35:24.723Z,100.00
2019-03-30T00:37:54.593Z,100.00
2019-03-30T00:40:24.183Z,100.00
2019-03-30T00:42:53.644Z,100.00
2019-03-30T00:45:23.240Z,100.00
2019-03-30T00:47:52.983Z,100.00
2019-03-30T00:50:22.675Z,100.00
2019-03-30T00:52:52.681Z,100.00
2019-03-30T00:55:22.270Z,100.00
2019-03-30T00:57:51.854Z,100.00
2019-03-30T01:00:21.740Z,100.00
2019-03-30T01:02:51.334Z,100.00
2019-03-30T01:05:20.988Z,100.00
2019-03-30T01:07:50.532Z,100.00
2019-03-30T01:10:20.508Z,100.00
2019-03-30T01:12:50.082Z,100.00
2019-03-30T01:15:19.770Z,100.00
2019-03-30T01:17:49.389Z,100.00
2019-03-30T01:20:19.074Z,100.00
2019-03-30T01:22:49.004Z,100.00
2019-03-30T01:25:18.767Z,100.00
2019-03-30T01:27:48.278Z,100.00
2019-03-30T01:30:23.418Z,100.00
2019-03-30T01:32:49.575Z,100.00
2019-03-30T01:35:19.214Z,100.00
2019-03-30T01:37:49.190Z,100.00
2019-03-30T01:40:18.779Z,100.00
2019-03-30T01:42:48.395Z,100.00
2019-03-30T01:45:17.933Z,100.00
2019-03-30T01:47:47.481Z,100.00
2019-03-30T01:50:18.196Z,100.00
2019-03-30T01:52:47.720Z,100.00
2019-03-30T01:55:17.313Z,100.00
2019-03-30T01:57:47.208Z,100.00
2019-03-30T02:00:17.589Z,100.00
2019-03-30T02:02:47.374Z,100.00
2019-03-30T02:05:17.251Z,100.00
2019-03-30T02:07:47.145Z,100.00
2019-03-30T02:10:23.934Z,100.00
2019-03-30T02:12:53.887Z,100.00
2019-03-30T02:15:23.530Z,100.00
2019-03-30T02:17:53.113Z,100.00
2019-03-30T02:20:36.894Z,100.00
2019-03-30T02:23:06.596Z,100.00
2019-03-30T02:25:36.439Z,100.00
2019-03-30T02:28:07.083Z,100.00
2019-03-30T02:30:37.292Z,100.00
2019-03-30T02:33:07.040Z,100.00
2019-03-30T02:35:36.722Z,100.00
2019-03-30T02:38:06.370Z,100.00
2019-03-30T02:40:36.222Z,100.00
2019-03-30T02:43:05.840Z,100.00
2019-03-30T02:45:35.545Z,100.00
2019-03-30T02:48:05.356Z,100.00
2019-03-30T02:50:48.595Z,100.00
2019-03-30T02:53:06.220Z,100.00
2019-03-30T02:55:35.949Z,100.00
2019-03-30T02:58:05.601Z,100.00
2019-03-30T03:00:35.247Z,100.00
2019-03-30T03:03:05.054Z,100.00
2019-03-30T03:05:34.698Z,100.00
2019-03-30T03:08:04.240Z,100.00
2019-03-30T03:10:33.827Z,100.00
2019-03-30T03:13:03.295Z,100.00
2019-03-30T03:15:32.994Z,100.00
2019-03-30T03:18:02.555Z,100.00
2019-03-30T03:20:32.151Z,100.00
2019-03-30T03:23:01.741Z,100.00
2019-03-30T03:25:31.299Z,100.00
2019-03-30T03:28:00.852Z,100.00
2019-03-30T03:30:30.541Z,100.00
2019-03-30T03:33:00.199Z,100.00
2019-03-30T03:35:29.783Z,100.00
2019-03-30T03:37:59.638Z,100.00
2019-03-30T03:40:29.584Z,100.00
2019-03-30T03:42:59.383Z,100.00
2019-03-30T03:45:28.932Z,100.00
2019-03-30T03:47:58.527Z,100.00
2019-03-30T03:50:42.481Z,100.00
2019-03-30T03:53:14.059Z,100.00
2019-03-30T03:55:43.855Z,100.00
2019-03-30T03:58:15.162Z,100.00
2019-03-30T04:00:45.316Z,100.00
2019-03-30T04:03:17.797Z,100.00
2019-03-30T04:05:49.280Z,100.00
2019-03-30T04:08:19.133Z,100.00
2019-03-30T04:10:49.826Z,100.00
2019-03-30T04:13:19.439Z,100.00
2019-03-30T04:15:49.059Z,100.00
2019-03-30T04:18:19.418Z,100.00
2019-03-30T04:20:49.302Z,100.00
2019-03-30T04:23:19.124Z,100.00
2019-03-30T04:25:48.833Z,100.00
2019-03-30T04:28:18.429Z,100.00
2019-03-30T04:30:48.024Z,100.00
2019-03-30T04:33:17.974Z,100.00
2019-03-30T04:35:47.522Z,100.00
2019-03-30T04:38:17.477Z,100.00
2019-03-30T04:40:47.027Z,100.00
2019-03-30T04:43:16.576Z,100.00
2019-03-30T04:45:46.171Z,100.00
2019-03-30T04:48:15.748Z,100.00
2019-03-30T04:50:45.339Z,100.00
2019-03-30T04:53:14.886Z,100.00
2019-03-30T04:55:44.846Z,100.00
2019-03-30T04:58:14.488Z,100.00
2019-03-30T05:00:44.082Z,100.00
2019-03-30T05:03:13.729Z,100.00
2019-03-30T05:05:43.422Z,100.00
2019-03-30T05:08:13.227Z,100.00
2019-03-30T05:10:42.775Z,100.00
2019-03-30T05:13:12.518Z,100.00
2019-03-30T05:15:42.211Z,100.00
2019-03-30T05:18:11.762Z,100.00
2019-03-30T05:20:41.310Z,100.00
2019-03-30T05:23:11.313Z,100.00
2019-03-30T05:25:40.967Z,100.00
2019-03-30T05:28:10.609Z,100.00
2019-03-30T05:30:40.185Z,100.00
2019-03-30T05:33:09.835Z,100.00
2019-03-30T05:35:39.386Z,100.00
2019-03-30T05:38:09.395Z,100.00
2019-03-30T05:40:38.984Z,100.00
2019-03-30T05:43:08.622Z,100.00
2019-03-30T05:45:38.201Z,100.00
2019-03-30T05:48:07.789Z,100.00
2019-03-30T05:50:37.330Z,100.00
2019-03-30T05:53:06.962Z,100.00
2019-03-30T05:55:36.595Z,100.00
2019-03-30T05:58:06.189Z,100.00
2019-03-30T06:00:35.733Z,100.00
2019-03-30T06:03:05.384Z,100.00
2019-03-30T06:05:35.069Z,100.00
2019-03-30T06:08:04.665Z,100.00
2019-03-30T06:10:34.204Z,100.00
2019-03-30T06:13:03.803Z,100.00
2019-03-30T06:15:33.448Z,100.00
2019-03-30T06:18:03.053Z,100.00
2019-03-30T06:20:32.598Z,100.00
2019-03-30T06:23:02.143Z,100.00
2019-03-30T06:25:31.767Z,100.00
2019-03-30T06:28:01.638Z,100.00
2019-03-30T06:30:31.342Z,100.00
2019-03-30T06:33:00.904Z,100.00
2019-03-30T06:35:30.499Z,100.00
2019-03-30T06:38:00.052Z,100.00
2019-03-30T06:40:29.694Z,100.00
2019-03-30T06:42:59.633Z,100.00
2019-03-30T06:45:29.561Z,100.00
2019-03-30T06:47:59.127Z,100.00
2019-03-30T06:50:28.822Z,100.00
2019-03-30T06:52:58.884Z,100.00
2019-03-30T06:55:28.748Z,100.00
2019-03-30T06:57:58.347Z,100.00
2019-03-30T07:00:35.175Z,100.00
2019-03-30T07:03:06.850Z,100.00
2019-03-30T07:05:43.257Z,100.00
2019-03-30T07:08:14.667Z,100.00
2019-03-30T07:10:46.499Z,100.00
2019-03-30T07:13:16.923Z,100.00
2019-03-30T07:15:58.238Z,100.00
2019-03-30T07:18:28.035Z,100.00
2019-03-30T07:20:57.642Z,100.00
2019-03-30T07:23:27.136Z,100.00
2019-03-30T07:25:56.847Z,100.00
2019-03-30T07:28:26.407Z,100.00
2019-03-30T07:30:55.961Z,100.00
2019-03-30T07:33:25.893Z,100.00
2019-03-30T07:35:55.458Z,100.00
2019-03-30T07:38:25.079Z,100.00
2019-03-30T07:40:54.640Z,100.00
2019-03-30T07:43:24.200Z,100.00
2019-03-30T07:45:53.754Z,100.00
2019-03-30T07:48:23.311Z,100.00
2019-03-30T07:50:53.251Z,100.00
2019-03-30T07:53:26.691Z,100.00
2019-03-30T07:56:07.849Z,100.00
2019-03-30T07:58:25.898Z,100.00
2019-03-30T08:00:55.525Z,100.00
2019-03-30T08:03:25.082Z,100.00
2019-03-30T08:05:54.695Z,100.00
2019-03-30T08:08:24.602Z,100.00
2019-03-30T08:10:54.162Z,100.00
2019-03-30T08:13:23.725Z,100.00
2019-03-30T08:15:53.331Z,100.00
2019-03-30T08:18:23.207Z,100.00
2019-03-30T08:20:52.799Z,100.00
2019-03-30T08:23:22.359Z,100.00
2019-03-30T08:25:51.936Z,100.00
2019-03-30T08:28:21.527Z,100.00
2019-03-30T08:30:51.223Z,100.00
2019-03-30T08:33:20.829Z,100.00
2019-03-30T08:35:50.721Z,100.00
2019-03-30T08:38:20.274Z,100.00
2019-03-30T08:40:49.793Z,100.00
2019-03-30T08:43:19.351Z,100.00
2019-03-30T08:45:49.135Z,100.00
2019-03-30T08:48:18.560Z,100.00
2019-03-30T08:50:48.155Z,100.00
2019-03-30T08:53:17.758Z,100.00
2019-03-30T08:55:47.326Z,100.00
2019-03-30T08:58:16.891Z,100.00
2019-03-30T09:00:46.483Z,100.00
2019-03-30T09:03:16.106Z,100.00
2019-03-30T09:05:45.660Z,100.00
2019-03-30T09:08:15.267Z,100.00
2019-03-30T09:10:44.867Z,100.00
2019-03-30T09:13:14.540Z,100.00
2019-03-30T09:15:44.161Z,100.00
2019-03-30T09:18:13.719Z,100.00
2019-03-30T09:20:43.277Z,100.00
2019-03-30T09:23:12.957Z,100.00
2019-03-30T09:25:42.592Z,100.00
2019-03-30T09:28:12.186Z,100.00
2019-03-30T09:30:41.750Z,100.00
2019-03-30T09:33:11.343Z,100.00
2019-03-30T09:35:40.942Z,100.00
2019-03-30T09:38:10.579Z,100.00
2019-03-30T09:40:40.156Z,100.00
2019-03-30T09:43:09.720Z,100.00
2019-03-30T09:45:39.445Z,100.00
2019-03-30T09:48:09.013Z,100.00
2019-03-30T09:50:38.893Z,100.00
2019-03-30T09:53:08.459Z,100.00
2019-03-30T09:55:38.157Z,100.00
2019-03-30T09:58:07.709Z,100.00
2019-03-30T10:00:37.191Z,100.00
2019-03-30T10:03:06.806Z,100.00
2019-03-30T10:05:36.484Z,100.00
2019-03-30T10:08:06.101Z,100.00
2019-03-30T10:10:35.669Z,100.00
2019-03-30T10:13:05.374Z,100.00
2019-03-30T10:15:35.277Z,100.00
2019-03-30T10:18:04.985Z,99.74
2019-03-30T10:20:34.940Z,92.77
2019-03-30T10:23:04.520Z,92.12
2019-03-30T10:25:34.142Z,95.67
2019-03-30T10:28:03.705Z,94.05
2019-03-30T10:30:33.314Z,92.81
2019-03-30T10:33:02.973Z,92.37
2019-03-30T10:35:32.610Z,91.59
2019-03-30T10:38:02.238Z,93.27
2019-03-30T10:40:31.780Z,91.39
2019-03-30T10:43:01.369Z,90.15
2019-03-30T10:45:31.037Z,88.12
2019-03-30T10:48:00.635Z,90.15
2019-03-30T10:50:30.154Z,89.85
2019-03-30T10:52:59.769Z,87.26
2019-03-30T10:55:29.446Z,88.50
2019-03-30T10:57:59.410Z,87.64
2019-03-30T11:00:37.040Z,86.88
2019-03-30T11:03:06.598Z,88.79
2019-03-30T11:05:36.276Z,86.86
2019-03-30T11:08:06.060Z,84.87
2019-03-30T11:10:35.732Z,88.43
2019-03-30T11:13:05.342Z,87.27
2019-03-30T11:15:34.911Z,86.74
2019-03-30T11:18:04.478Z,86.47
2019-03-30T11:20:34.174Z,85.87
2019-03-30T11:23:03.812Z,85.31
2019-03-30T11:25:33.496Z,85.38
2019-03-30T11:28:03.153Z,85.98
2019-03-30T11:30:32.760Z,85.18
2019-03-30T11:33:02.427Z,83.48
2019-03-30T11:35:32.095Z,85.91
2019-03-30T11:38:01.655Z,81.92
2019-03-30T11:40:31.607Z,79.08
2019-03-30T11:43:01.197Z,83.15
2019-03-30T11:45:30.840Z,82.43
2019-03-30T11:48:00.789Z,80.66
2019-03-30T11:50:30.371Z,82.05
2019-03-30T11:53:00.324Z,81.14
2019-03-30T11:55:29.918Z,81.62
2019-03-30T11:57:59.581Z,80.13
2019-03-30T12:00:29.184Z,78.91
2019-03-30T12:02:58.746Z,79.00
2019-03-30T12:05:28.352Z,77.26
2019-03-30T12:07:58.039Z,75.59
2019-03-30T12:10:27.650Z,76.72
2019-03-30T12:12:57.333Z,75.92
2019-03-30T12:15:26.894Z,75.11
2019-03-30T12:17:56.486Z,73.86
2019-03-30T12:20:26.196Z,76.23
2019-03-30T12:22:55.856Z,76.80
2019-03-30T12:25:35.438Z,78.26
2019-03-30T12:27:56.733Z,77.76
2019-03-30T12:30:26.345Z,74.42
2019-03-30T12:32:55.963Z,74.90
2019-03-30T12:35:25.537Z,74.41
2019-03-30T12:37:55.095Z,71.73
2019-03-30T12:40:24.698Z,73.22
2019-03-30T12:42:54.357Z,72.64
2019-03-30T12:45:23.964Z,72.24
2019-03-30T12:47:53.504Z,74.49
2019-03-30T12:50:23.222Z,72.74
2019-03-30T12:52:52.812Z,74.35
2019-03-30T12:55:22.377Z,73.60
2019-03-30T12:57:52.376Z,73.81
2019-03-30T13:00:21.977Z,74.17
2019-03-30T13:02:52.464Z,75.46
2019-03-30T13:05:22.031Z,75.93
2019-03-30T13:07:51.985Z,75.90
2019-03-30T13:10:21.621Z,77.70
2019-03-30T13:12:51.480Z,78.77
2019-03-30T13:15:21.081Z,78.92
2019-03-30T13:17:50.641Z,77.78
2019-03-30T13:20:20.197Z,76.53
2019-03-30T13:22:49.798Z,75.82
2019-03-30T13:25:19.361Z,75.72
2019-03-30T13:27:48.950Z,76.40
2019-03-30T13:30:18.946Z,78.37
2019-03-30T13:32:48.550Z,76.43
2019-03-30T13:35:18.111Z,76.24
2019-03-30T13:37:47.897Z,75.33
2019-03-30T13:40:17.442Z,75.37
2019-03-30T13:42:47.002Z,75.98
2019-03-30T13:45:16.610Z,75.21
2019-03-30T13:47:46.214Z,74.14
2019-03-30T13:50:15.918Z,74.63
2019-03-30T13:52:45.486Z,72.43
2019-03-30T13:55:15.542Z,73.18
2019-03-30T13:57:45.145Z,71.46
2019-03-30T14:00:15.152Z,73.37
2019-03-30T14:02:44.717Z,71.11
2019-03-30T14:05:14.514Z,72.90
2019-03-30T14:07:44.041Z,74.79
2019-03-30T14:10:15.242Z,77.13
2019-03-30T14:12:44.845Z,76.15
2019-03-30T14:15:14.401Z,77.39
2019-03-30T14:17:44.063Z,80.07
2019-03-30T14:20:13.675Z,83.49
2019-03-30T14:22:43.287Z,84.35
2019-03-30T14:25:13.021Z,84.45
2019-03-30T14:27:42.683Z,85.64
2019-03-30T14:30:12.499Z,86.79
2019-03-30T14:32:42.060Z,91.18
2019-03-30T14:35:11.757Z,90.94
2019-03-30T14:37:41.360Z,93.65
2019-03-30T14:40:11.436Z,93.88
2019-03-30T14:42:41.039Z,93.51
2019-03-30T14:45:10.804Z,95.49
2019-03-30T14:47:40.388Z,94.96
2019-03-30T14:50:10.966Z,92.83
2019-03-30T14:52:40.681Z,92.57
2019-03-30T14:55:10.337Z,93.97
2019-03-30T14:57:39.897Z,93.36
2019-03-30T15:00:10.191Z,93.61
2019-03-30T15:02:39.742Z,91.42
2019-03-30T15:05:09.904Z,91.30
2019-03-30T15:07:39.505Z,88.78
2019-03-30T15:10:09.552Z,87.87
2019-03-30T15:12:39.207Z,90.41
2019-03-30T15:15:09.665Z,92.94
2019-03-30T15:17:40.981Z,94.82
2019-03-30T15:20:10.838Z,95.67
2019-03-30T15:22:40.508Z,98.76
2019-03-30T15:25:10.989Z,99.80
2019-03-30T15:27:40.685Z,100.00
2019-03-30T15:30:10.718Z,100.00
2019-03-30T15:32:40.679Z,100.00
2019-03-30T15:35:10.800Z,100.00
2019-03-30T15:37:40.399Z,100.00
2019-03-30T15:40:10.208Z,100.00
2019-03-30T15:42:40.801Z,100.00
2019-03-30T15:45:10.640Z,100.00
2019-03-30T15:47:40.276Z,100.00
2019-03-30T15:50:11.617Z,100.00
2019-03-30T15:52:41.180Z,100.00
2019-03-30T15:55:10.839Z,100.00
2019-03-30T15:57:40.542Z,100.00
2019-03-30T16:00:14.196Z,100.00
2019-03-30T16:02:43.702Z,100.00
2019-03-30T16:05:15.694Z,100.00
2019-03-30T16:07:45.041Z,100.00
2019-03-30T16:10:15.021Z,100.00
2019-03-30T16:12:44.580Z,99.92
2019-03-30T16:15:14.186Z,100.00
2019-03-30T16:17:43.743Z,99.26
2019-03-30T16:20:15.170Z,96.37
2019-03-30T16:22:44.894Z,94.57
2019-03-30T16:25:14.538Z,97.39
2019-03-30T16:27:44.089Z,100.00
2019-03-30T16:30:14.140Z,96.48
2019-03-30T16:32:43.697Z,94.81
2019-03-30T16:35:13.287Z,92.26
2019-03-30T16:37:42.841Z,91.05
2019-03-30T16:40:14.283Z,93.69
2019-03-30T16:42:43.769Z,94.94
2019-03-30T16:45:13.761Z,97.60
2019-03-30T16:47:43.354Z,99.81
2019-03-30T16:50:13.424Z,100.00
2019-03-30T16:52:43.112Z,100.00
2019-03-30T16:55:12.681Z,100.00
2019-03-30T16:57:43.936Z,100.00
2019-03-30T17:00:15.456Z,100.00
2019-03-30T17:02:45.015Z,100.00
2019-03-30T17:05:14.689Z,100.00
2019-03-30T17:07:44.604Z,100.00
2019-03-30T17:10:14.238Z,100.00
2019-03-30T17:12:44.280Z,100.00
2019-03-30T17:15:13.935Z,100.00
2019-03-30T17:17:43.492Z,100.00
2019-03-30T17:20:13.308Z,100.00
2019-03-30T17:22:42.898Z,100.00
2019-03-30T17:25:12.470Z,100.00
2019-03-30T17:27:56.689Z,100.00
2019-03-30T17:30:15.453Z,100.00
2019-03-30T17:32:45.047Z,100.00
2019-03-30T17:35:14.644Z,100.00
2019-03-30T17:37:44.234Z,100.00
2019-03-30T17:40:15.308Z,100.00
2019-03-30T17:42:44.866Z,100.00
2019-03-30T17:45:14.571Z,100.00
2019-03-30T17:47:44.127Z,100.00
2019-03-30T17:50:14.081Z,100.00
2019-03-30T17:52:43.666Z,100.00
2019-03-30T17:55:13.450Z,100.00
2019-03-30T17:57:43.151Z,100.00
2019-03-30T18:00:16.177Z,100.00
2019-03-30T18:02:45.772Z,100.00
2019-03-30T18:05:15.622Z,100.00
2019-03-30T18:07:45.175Z,100.00
2019-03-30T18:10:14.970Z,100.00
2019-03-30T18:12:44.554Z,100.00
2019-03-30T18:15:16.004Z,100.00
2019-03-30T18:17:45.583Z,100.00
2019-03-30T18:20:15.526Z,100.00
2019-03-30T18:22:45.089Z,100.00
2019-03-30T18:25:14.746Z,100.00
2019-03-30T18:27:44.379Z,100.00
2019-03-30T18:30:14.554Z,100.00
2019-03-30T18:32:44.352Z,100.00
2019-03-30T18:35:14.006Z,100.00
2019-03-30T18:37:43.919Z,100.00
2019-03-30T18:40:26.664Z,100.00
2019-03-30T18:42:56.705Z,100.00
2019-03-30T18:45:27.809Z,100.00
2019-03-30T18:48:11.207Z,100.00
2019-03-30T18:50:41.949Z,100.00
2019-03-30T18:53:12.231Z,100.00
2019-03-30T18:55:41.769Z,100.00
2019-03-30T18:58:11.358Z,100.00
2019-03-30T19:00:40.925Z,100.00
2019-03-30T19:03:10.566Z,100.00
2019-03-30T19:05:40.123Z,100.00
2019-03-30T19:08:09.674Z,100.00
2019-03-30T19:10:39.257Z,100.00
2019-03-30T19:13:08.818Z,100.00
2019-03-30T19:15:38.800Z,100.00
2019-03-30T19:18:08.461Z,100.00
2019-03-30T19:20:38.058Z,100.00
2019-03-30T19:23:07.605Z,100.00
2019-03-30T19:25:37.144Z,100.00
2019-03-30T19:28:07.803Z,100.00
2019-03-30T19:30:37.506Z,100.00
2019-03-30T19:33:07.091Z,100.00
2019-03-30T19:35:36.638Z,100.00
2019-03-30T19:38:06.218Z,100.00
2019-03-30T19:40:35.769Z,100.00
2019-03-30T19:43:05.370Z,100.00
2019-03-30T19:45:35.009Z,100.00
2019-03-30T19:48:04.719Z,100.00
2019-03-30T19:50:34.326Z,100.00
2019-03-30T19:53:03.834Z,100.00
2019-03-30T19:55:33.455Z,100.00
2019-03-30T19:58:03.071Z,100.00
2019-03-30T20:00:32.703Z,100.00
2019-03-30T20:03:02.333Z,100.00
2019-03-30T20:05:31.918Z,100.00
2019-03-30T20:08:12.166Z,100.00
2019-03-30T20:10:33.146Z,100.00
2019-03-30T20:13:03.064Z,100.00
2019-03-30T20:15:32.779Z,100.00
2019-03-30T20:18:02.412Z,100.00
2019-03-30T20:20:32.000Z,100.00
2019-03-30T20:23:01.551Z,100.00
2019-03-30T20:25:31.097Z,100.00
2019-03-30T20:28:00.690Z,100.00
2019-03-30T20:30:30.376Z,100.00
2019-03-30T20:33:00.278Z,100.00
2019-03-30T20:35:29.966Z,100.00
2019-03-30T20:37:59.856Z,100.00
2019-03-30T20:40:29.370Z,100.00
2019-03-30T20:42:58.914Z,100.00
2019-03-30T20:45:28.494Z,100.00
2019-03-30T20:47:58.045Z,100.00
2019-03-30T20:50:27.642Z,100.00
2019-03-30T20:52:57.193Z,100.00
2019-03-30T20:55:26.926Z,100.00
2019-03-30T20:57:56.679Z,100.00
2019-03-30T21:00:26.241Z,100.00
2019-03-30T21:02:55.714Z,100.00
2019-03-30T21:05:25.325Z,100.00
2019-03-30T21:07:54.921Z,100.00
2019-03-30T21:10:24.465Z,100.00
2019-03-30T21:12:54.022Z,100.00
2019-03-30T21:15:23.609Z,100.00
2019-03-30T21:17:53.149Z,100.00
2019-03-30T21:20:22.689Z,100.00
2019-03-30T21:22:52.222Z,100.00
2019-03-30T21:25:21.750Z,100.00
2019-03-30T21:27:51.416Z,100.00
2019-03-30T21:30:21.162Z,100.00
2019-03-30T21:32:50.721Z,100.00
2019-03-30T21:35:20.352Z,100.00
2019-03-30T21:37:49.909Z,100.00
2019-03-30T21:40:19.597Z,100.00
2019-03-30T21:42:49.184Z,100.00
2019-03-30T21:45:18.842Z,100.00
2019-03-30T21:47:48.538Z,100.00
2019-03-30T21:50:18.084Z,100.00
2019-03-30T21:52:47.643Z,100.00
2019-03-30T21:55:17.226Z,100.00
2019-03-30T21:57:46.779Z,100.00
2019-03-30T22:00:29.702Z,100.00
2019-03-30T22:02:59.250Z,100.00
2019-03-30T22:05:28.837Z,100.00
2019-03-30T22:07:59.085Z,100.00
2019-03-30T22:10:29.255Z,100.00
2019-03-30T22:12:58.897Z,100.00
2019-03-30T22:15:29.170Z,100.00
2019-03-30T22:17:58.889Z,100.00
2019-03-30T22:20:28.554Z,100.00
2019-03-30T22:22:58.095Z,100.00
2019-03-30T22:25:27.694Z,100.00
2019-03-30T22:27:57.293Z,100.00
2019-03-30T22:30:26.886Z,100.00
2019-03-30T22:32:56.426Z,100.00
2019-03-30T22:35:25.964Z,100.00
2019-03-30T22:37:55.556Z,100.00
2019-03-30T22:40:25.148Z,100.00
2019-03-30T22:42:54.801Z,100.00
2019-03-30T22:45:24.383Z,100.00
2019-03-30T22:47:53.934Z,100.00
2019-03-30T22:50:23.924Z,100.00
2019-03-30T22:52:53.469Z,100.00
2019-03-30T22:55:23.062Z,100.00
2019-03-30T22:57:52.658Z,100.00
2019-03-30T23:00:39.990Z,100.00
2019-03-30T23:03:09.787Z,100.00
2019-03-30T23:05:39.430Z,100.00
2019-03-30T23:08:08.969Z,100.00
2019-03-30T23:10:38.901Z,100.00
2019-03-30T23:13:08.586Z,100.00
2019-03-30T23:15:38.062Z,100.00
2019-03-30T23:18:07.609Z,100.00
2019-03-30T23:20:37.197Z,100.00
2019-03-30T23:23:06.783Z,100.00
2019-03-30T23:25:36.594Z,100.00
2019-03-30T23:28:06.198Z,100.00
2019-03-30T23:30:35.831Z,100.00
2019-03-30T23:33:05.535Z,100.00
2019-03-30T23:35:35.347Z,100.00
2019-03-30T23:38:05.018Z,100.00
2019-03-30T23:40:34.612Z,100.00
2019-03-30T23:43:04.160Z,100.00
2019-03-30T23:45:33.745Z,100.00
2019-03-30T23:48:03.296Z,100.00
2019-03-30T23:50:32.973Z,100.00
2019-03-30T23:53:02.521Z,100.00
2019-03-30T23:55:32.205Z,100.00
2019-03-30T23:58:01.754Z,100.00
